Time;durP1;ratioP1;P1;durP2;ratioP2;P2;SDS_P1;SDS_P2;PMS_P1;PMS_P2;Temp;Humidity;BMP_temperature;BMP_pressure;BME280_temperature;BME280_humidity;BME280_pressure;Samples;Min_cycle;Max_cycle;Signal;HPM_P1;HPM_P2
2022/05/06 00:02:03;;;;;;;74.07;40.03;;;13.40;86.30;;;;;;5057074;28;20501;-84
2022/05/06 00:04:29;;;;;;;85.28;41.42;;;13.40;86.20;;;;;;5057130;28;20257;-85
2022/05/06 00:06:55;;;;;;;78.30;40.00;;;13.40;86.20;;;;;;5062700;28;20176;-85
2022/05/06 00:09:22;;;;;;;83.72;40.97;;;13.40;86.20;;;;;;5061076;28;20848;-85
2022/05/06 00:11:48;;;;;;;78.63;41.25;;;13.40;86.00;;;;;;5074584;28;20169;-85
2022/05/06 00:14:13;;;;;;;92.50;44.60;;;13.40;86.10;;;;;;5056662;28;20183;-85
2022/05/06 00:16:39;;;;;;;85.37;41.40;;;13.40;86.00;;;;;;5056129;28;20466;-85
2022/05/06 00:19:06;;;;;;;76.45;42.72;;;13.50;86.10;;;;;;5056704;28;20200;-85
2022/05/06 00:21:32;;;;;;;83.80;43.03;;;13.50;86.00;;;;;;5054650;28;20192;-85
2022/05/06 00:23:58;;;;;;;79.73;43.70;;;13.40;85.90;;;;;;5054123;28;20462;-84
2022/05/06 00:26:23;;;;;;;59.00;33.83;;;13.40;86.00;;;;;;5036482;28;20181;-84
2022/05/06 00:28:49;;;;;;;50.27;31.57;;;13.40;85.80;;;;;;5020016;28;20184;-84
2022/05/06 00:31:15;;;;;;;46.93;30.50;;;13.50;85.40;;;;;;5036568;28;20700;-84
2022/05/06 00:33:40;;;;;;;50.63;33.10;;;13.50;85.10;;;;;;5036070;28;20180;-86
2022/05/06 00:36:08;;;;;;;55.23;33.67;;;13.50;85.00;;;;;;5036255;28;20204;-86
2022/05/06 00:38:33;;;;;;;54.47;35.65;;;13.40;85.00;;;;;;5054139;28;20232;-85
2022/05/06 00:40:59;;;;;;;61.20;37.23;;;13.50;85.10;;;;;;5036089;28;20201;-86
2022/05/06 00:43:25;;;;;;;54.37;33.97;;;13.40;84.80;;;;;;5054893;28;20187;-86
2022/05/06 00:45:53;;;;;;;54.50;32.20;;;13.40;84.80;;;;;;5057958;28;20177;-85
2022/05/06 00:48:25;;;;;;;54.38;32.10;;;13.50;84.80;;;;;;5061076;28;20176;-86
2022/05/06 00:50:52;;;;;;;49.35;30.98;;;13.60;84.20;;;;;;5064769;28;20204;-85
2022/05/06 00:53:18;;;;;;;50.72;31.15;;;13.70;83.20;;;;;;5058900;28;20267;-85
2022/05/06 00:55:45;;;;;;;48.85;30.40;;;13.70;83.10;;;;;;5074315;28;20220;-85
2022/05/06 00:58:11;;;;;;;54.80;32.00;;;13.70;82.80;;;;;;5056570;28;20255;-85
2022/05/06 01:00:37;;;;;;;52.92;33.53;;;13.60;82.90;;;;;;5057009;28;20250;-84
2022/05/06 01:03:03;;;;;;;53.87;34.43;;;13.50;83.40;;;;;;5076025;28;20184;-84
2022/05/06 01:05:30;;;;;;;53.55;33.92;;;13.50;83.90;;;;;;5063365;28;20415;-85
2022/05/06 01:07:58;;;;;;;57.60;35.03;;;13.50;84.20;;;;;;5068380;28;20223;-86
2022/05/06 01:10:24;;;;;;;56.58;34.20;;;13.40;84.40;;;;;;5072705;28;20196;-86
2022/05/06 01:12:50;;;;;;;62.83;40.42;;;13.40;84.60;;;;;;5060364;28;20184;-85
2022/05/06 01:15:28;;;;;;;57.80;35.17;;;13.40;84.60;;;;;;5076130;22;20336;-85
2022/05/06 01:17:55;;;;;;;63.33;37.40;;;13.30;84.70;;;;;;5079109;28;20172;-87
2022/05/06 01:20:22;;;;;;;54.70;36.83;;;13.30;84.90;;;;;;5077796;28;20176;-87
2022/05/06 01:22:57;;;;;;;56.85;36.65;;;13.30;84.90;;;;;;5085783;28;20167;-87
2022/05/06 01:25:24;;;;;;;63.85;39.97;;;13.30;84.80;;;;;;5077623;28;20260;-87
2022/05/06 01:28:02;;;;;;;75.07;41.72;;;13.30;84.90;;;;;;5079241;28;20244;-86
2022/05/06 01:30:38;;;;;;;78.30;44.55;;;13.30;85.00;;;;;;5081585;28;20600;-84
2022/05/06 01:33:09;;;;;;;71.25;42.15;;;13.30;85.20;;;;;;5082368;28;20214;-85
2022/05/06 01:35:41;;;;;;;64.03;41.30;;;13.30;85.30;;;;;;5075934;28;20578;-85
2022/05/06 01:38:08;;;;;;;76.85;45.67;;;13.30;85.30;;;;;;5079729;28;20168;-86
2022/05/06 01:40:39;;;;;;;78.10;42.65;;;13.30;85.40;;;;;;5063572;28;20192;-85
2022/05/06 01:43:10;;;;;;;78.88;45.10;;;13.30;85.60;;;;;;5079934;28;20176;-86
2022/05/06 01:45:37;;;;;;;95.97;46.58;;;13.40;85.60;;;;;;5098652;28;20214;-84
2022/05/06 01:48:04;;;;;;;77.60;42.83;;;13.40;85.50;;;;;;5079755;28;20553;-85
2022/05/06 01:50:32;;;;;;;73.03;40.40;;;13.40;85.40;;;;;;5079694;28;20187;-85
2022/05/06 01:52:59;;;;;;;66.88;40.22;;;13.50;85.30;;;;;;5083161;28;20626;-86
2022/05/06 01:55:25;;;;;;;72.30;42.03;;;13.60;84.80;;;;;;5099714;28;20199;-87
2022/05/06 01:57:51;;;;;;;75.32;41.40;;;13.60;84.60;;;;;;5079833;28;20607;-87
2022/05/06 02:00:17;;;;;;;73.80;43.37;;;13.60;84.50;;;;;;5080609;28;20255;-87
2022/05/06 02:02:44;;;;;;;77.57;43.27;;;13.50;84.70;;;;;;5099075;28;20425;-86
2022/05/06 02:05:19;;;;;;;70.85;40.70;;;13.50;85.00;;;;;;5101640;28;20438;-86
2022/05/06 02:07:49;;;;;;;76.30;44.90;;;13.60;84.40;;;;;;5080346;28;20556;-85
2022/05/06 02:10:20;;;;;;;84.13;46.92;;;13.60;84.10;;;;;;5080942;28;20229;-87
2022/05/06 02:12:46;;;;;;;90.20;46.85;;;13.50;84.50;;;;;;5078752;28;20172;-86
2022/05/06 02:15:14;;;;;;;90.35;46.50;;;13.40;84.80;;;;;;5080216;28;20211;-87
2022/05/06 02:17:41;;;;;;;85.95;46.25;;;13.40;85.00;;;;;;5089879;28;20160;-85
2022/05/06 02:20:09;;;;;;;84.15;43.13;;;13.40;84.80;;;;;;5083425;28;20180;-84
2022/05/06 02:22:36;;;;;;;76.78;42.05;;;13.40;84.80;;;;;;5086593;28;20202;-86
2022/05/06 02:25:04;;;;;;;87.35;46.20;;;13.50;84.20;;;;;;5098095;28;20214;-86
2022/05/06 02:27:30;;;;;;;85.43;46.53;;;13.40;84.40;;;;;;5115088;28;20183;-85
2022/05/06 02:35:26;;;;;;;94.93;46.90;;;13.30;85.20;;;;;;5096065;28;20226;-86
2022/05/06 02:37:51;;;;;;;84.88;43.33;;;13.30;85.10;;;;;;5078523;28;20176;-85
2022/05/06 02:40:17;;;;;;;88.63;47.60;;;13.30;85.50;;;;;;5081136;28;20670;-86
2022/05/06 02:42:43;;;;;;;91.73;46.70;;;13.20;85.50;;;;;;5080692;28;20172;-86
2022/05/06 02:45:10;;;;;;;97.50;46.30;;;13.20;85.60;;;;;;5099290;28;20694;-86
2022/05/06 02:47:36;;;;;;;96.15;44.45;;;13.20;85.60;;;;;;5080675;28;20418;-87
2022/05/06 02:50:03;;;;;;;89.15;46.47;;;13.30;85.70;;;;;;5082147;28;20184;-86
2022/05/06 02:52:28;;;;;;;91.80;47.97;;;13.30;85.50;;;;;;5079940;28;20182;-87
2022/05/06 02:54:54;;;;;;;104.80;50.60;;;13.30;85.50;;;;;;5080583;28;20203;-85
2022/05/06 02:57:20;;;;;;;106.95;53.00;;;13.30;85.70;;;;;;5081769;28;20176;-85
2022/05/06 02:59:46;;;;;;;113.20;52.47;;;13.30;85.80;;;;;;5101058;28;20191;-86
2022/05/06 03:02:12;;;;;;;110.63;51.60;;;13.30;85.90;;;;;;5082147;28;20172;-87
2022/05/06 03:04:38;;;;;;;109.77;48.93;;;13.30;85.90;;;;;;5101340;28;20219;-85
2022/05/06 03:07:06;;;;;;;104.05;51.25;;;13.30;85.90;;;;;;5083666;28;20167;-84
2022/05/06 03:09:34;;;;;;;118.43;55.42;;;13.30;85.90;;;;;;5081954;28;20183;-87
2022/05/06 03:12:00;;;;;;;114.50;51.95;;;13.30;85.90;;;;;;5083099;28;20176;-85
2022/05/06 03:14:25;;;;;;;110.50;53.20;;;13.30;86.00;;;;;;5109942;28;20627;-85
2022/05/06 03:16:51;;;;;;;112.07;57.80;;;13.30;86.00;;;;;;5109227;28;20204;-86
2022/05/06 03:19:17;;;;;;;113.10;54.60;;;13.30;86.00;;;;;;5091920;28;20409;-86
2022/05/06 03:21:50;;;;;;;112.50;54.30;;;13.30;85.90;;;;;;5092740;28;21016;-85
2022/05/06 03:24:16;;;;;;;106.25;53.05;;;13.30;85.80;;;;;;5129942;28;20393;-86
2022/05/06 03:26:42;;;;;;;124.75;59.65;;;13.30;85.70;;;;;;5109956;28;20218;-87
2022/05/06 03:29:08;;;;;;;102.30;47.80;;;13.30;85.70;;;;;;5089163;28;20187;-87
2022/05/06 03:31:33;;;;;;;113.13;57.33;;;13.20;85.70;;;;;;5081542;28;20187;-86
2022/05/06 03:34:01;;;;;;;103.53;52.90;;;13.30;86.00;;;;;;5081433;28;20176;-85
2022/05/06 03:36:27;;;;;;;114.03;54.95;;;13.30;85.80;;;;;;5080764;28;20195;-85
2022/05/06 03:38:53;;;;;;;106.17;53.83;;;13.30;85.80;;;;;;5099076;28;20179;-87
2022/05/06 03:41:18;;;;;;;119.17;55.50;;;13.30;85.60;;;;;;5080635;28;20172;-86
2022/05/06 03:43:46;;;;;;;110.37;55.20;;;13.30;85.60;;;;;;5080512;28;20187;-86
2022/05/06 03:46:12;;;;;;;107.15;50.00;;;13.30;85.50;;;;;;5082059;28;20245;-86
2022/05/06 03:48:38;;;;;;;109.17;51.07;;;13.30;85.40;;;;;;5081381;28;20184;-87
2022/05/06 03:51:23;;;;;;;104.57;53.80;;;13.40;85.40;;;;;;5084490;28;20179;-84
2022/05/06 03:53:54;;;;;;;108.70;52.50;;;13.40;85.30;;;;;;5077210;28;20403;-84
2022/05/06 03:56:23;;;;;;;90.43;49.35;;;13.40;85.40;;;;;;5089907;28;20200;-85
2022/05/06 03:58:50;;;;;;;102.28;52.78;;;13.40;85.40;;;;;;5095832;28;20160;-87
2022/05/06 04:01:17;;;;;;;110.63;52.50;;;13.40;85.40;;;;;;5083748;28;20176;-86
2022/05/06 04:03:43;;;;;;;95.13;46.63;;;13.40;85.50;;;;;;5089650;28;20176;-86
2022/05/06 04:06:13;;;;;;;83.15;43.53;;;13.30;85.40;;;;;;5128956;28;20259;-86
2022/05/06 04:08:41;;;;;;;88.88;45.13;;;13.40;85.20;;;;;;5134154;28;20187;-85
2022/05/06 04:11:08;;;;;;;104.78;50.58;;;13.40;85.00;;;;;;5117613;28;20265;-85
2022/05/06 04:13:34;;;;;;;115.32;52.15;;;13.40;85.10;;;;;;5111278;28;20653;-86
2022/05/06 04:16:01;;;;;;;113.88;52.33;;;13.30;85.50;;;;;;5083015;28;20219;-86
2022/05/06 04:18:28;;;;;;;121.13;54.58;;;13.30;85.70;;;;;;5118443;28;20179;-86
2022/05/06 04:23:38;;;;;;;89.45;45.30;;;13.20;85.80;;;;;;5102514;28;20539;-85
2022/05/06 04:26:09;;;;;;;103.43;49.17;;;13.40;85.30;;;;;;5079178;28;20685;-84
2022/05/06 04:28:35;;;;;;;110.68;48.88;;;13.30;85.30;;;;;;5096049;28;20207;-85
2022/05/06 04:31:02;;;;;;;116.80;55.17;;;13.30;85.50;;;;;;5096721;28;20240;-84
2022/05/06 04:33:29;;;;;;;109.45;52.75;;;13.30;85.70;;;;;;5078682;28;20201;-85
2022/05/06 04:35:57;;;;;;;101.30;50.00;;;13.30;85.90;;;;;;5078234;28;20258;-86
2022/05/06 04:38:23;;;;;;;125.10;55.97;;;13.30;85.80;;;;;;5078618;28;20171;-86
2022/05/06 04:40:50;;;;;;;107.72;52.40;;;13.30;85.50;;;;;;5078633;28;20643;-85
2022/05/06 04:43:20;;;;;;;100.90;51.13;;;13.20;85.10;;;;;;5097178;28;20643;-86
2022/05/06 04:45:47;;;;;;;102.90;49.95;;;13.20;85.20;;;;;;5062671;28;20217;-87
2022/05/06 04:48:14;;;;;;;109.78;51.88;;;13.30;85.40;;;;;;5079081;28;20182;-85
2022/05/06 04:50:41;;;;;;;119.38;55.42;;;13.30;85.30;;;;;;5078889;28;20183;-84
2022/05/06 04:53:08;;;;;;;110.25;51.75;;;13.30;85.50;;;;;;5078407;28;20175;-86
2022/05/06 04:55:35;;;;;;;102.00;48.70;;;13.30;85.60;;;;;;5061760;28;20211;-87
2022/05/06 04:58:02;;;;;;;102.97;52.78;;;13.30;85.50;;;;;;5078932;28;20190;-88
2022/05/06 05:00:28;;;;;;;101.20;49.53;;;13.30;85.50;;;;;;5077988;28;20210;-86
2022/05/06 05:02:55;;;;;;;121.50;57.67;;;13.40;85.30;;;;;;5097250;28;20172;-88
2022/05/06 05:05:21;;;;;;;134.55;57.33;;;13.40;85.20;;;;;;5095636;28;20719;-86
2022/05/06 05:07:47;;;;;;;115.22;55.03;;;13.30;85.00;;;;;;5062249;28;20205;-86
2022/05/06 05:10:12;;;;;;;123.22;54.60;;;13.40;85.00;;;;;;5097595;28;20639;-86
2022/05/06 05:12:38;;;;;;;126.37;57.40;;;13.40;85.70;;;;;;5078571;28;20191;-87
2022/05/06 05:15:05;;;;;;;107.77;53.90;;;13.30;85.00;;;;;;5078028;28;20496;-86
2022/05/06 05:17:31;;;;;;;92.70;45.42;;;13.40;85.00;;;;;;5078111;28;20410;-86
2022/05/06 05:19:56;;;;;;;120.57;52.80;;;13.50;85.10;;;;;;5078162;28;20179;-86
2022/05/06 05:22:22;;;;;;;92.97;45.93;;;13.60;84.60;;;;;;5095384;28;20425;-87
2022/05/06 05:24:48;;;;;;;95.03;48.60;;;13.60;84.40;;;;;;5096418;28;20422;-87
2022/05/06 05:27:14;;;;;;;110.22;51.47;;;13.70;83.90;;;;;;5094476;28;20263;-86
2022/05/06 05:29:41;;;;;;;105.93;49.57;;;13.70;83.70;;;;;;5095078;28;20195;-87
2022/05/06 05:32:12;;;;;;;112.57;53.63;;;13.70;83.90;;;;;;5076534;28;20838;-86
2022/05/06 05:34:40;;;;;;;108.88;52.78;;;13.70;83.90;;;;;;5077680;28;20667;-87
2022/05/06 05:37:06;;;;;;;127.35;56.97;;;13.70;83.70;;;;;;5076116;28;20252;-86
2022/05/06 05:39:32;;;;;;;112.23;54.47;;;13.70;83.70;;;;;;5079413;28;20211;-86
2022/05/06 05:41:57;;;;;;;118.80;55.13;;;13.60;83.80;;;;;;5096314;28;20846;-86
2022/05/06 05:49:52;;;;;;;115.53;54.17;;;13.50;84.00;;;;;;5109898;28;20201;-89
2022/05/06 05:52:17;;;;;;;96.03;49.47;;;13.50;84.00;;;;;;5096450;28;20179;-87
2022/05/06 05:54:44;;;;;;;105.63;53.70;;;13.70;83.90;;;;;;5092921;28;20206;-88
2022/05/06 05:57:09;;;;;;;97.25;48.92;;;13.80;83.40;;;;;;5091700;28;20203;-87
2022/05/06 05:59:35;;;;;;;122.90;55.30;;;13.80;83.30;;;;;;5089425;28;20187;-89
2022/05/06 06:02:04;;;;;;;99.50;47.33;;;14.00;83.20;;;;;;5091075;28;20164;-89
2022/05/06 06:04:41;;;;;;;108.00;52.63;;;14.10;82.80;;;;;;5073864;28;20319;-88
2022/05/06 06:07:07;;;;;;;112.18;51.20;;;14.10;82.30;;;;;;5095815;28;20176;-88
2022/05/06 06:09:33;;;;;;;108.40;49.20;;;14.10;82.20;;;;;;5095053;28;20225;-87
2022/05/06 06:11:59;;;;;;;101.35;48.65;;;14.00;82.10;;;;;;5062943;28;20450;-89
2022/05/06 06:14:25;;;;;;;101.97;46.37;;;14.20;81.80;;;;;;5043663;28;20212;-87
2022/05/06 06:16:50;;;;;;;92.50;46.83;;;14.40;80.20;;;;;;5080616;28;20191;-87
2022/05/06 06:19:17;;;;;;;86.80;45.00;;;14.50;79.10;;;;;;5080345;28;20222;-87
2022/05/06 06:21:43;;;;;;;88.18;45.33;;;14.50;78.60;;;;;;5091541;28;20167;-88
2022/05/06 06:24:09;;;;;;;104.55;52.58;;;14.40;78.70;;;;;;5073540;28;20188;-86
2022/05/06 06:26:36;;;;;;;104.17;53.30;;;14.30;79.90;;;;;;5096115;28;20176;-87
2022/05/06 06:29:04;;;;;;;115.13;52.95;;;14.10;80.40;;;;;;5080276;28;20758;-87
2022/05/06 06:31:31;;;;;;;94.75;49.80;;;14.10;80.90;;;;;;5093386;28;20589;-87
2022/05/06 06:33:58;;;;;;;99.40;50.03;;;14.00;81.10;;;;;;5080308;28;20199;-86
2022/05/06 06:36:24;;;;;;;97.78;46.80;;;14.10;81.40;;;;;;5102070;28;20267;-86
2022/05/06 06:38:50;;;;;;;103.17;47.57;;;14.30;79.80;;;;;;5098469;28;20206;-86
2022/05/06 06:41:21;;;;;;;104.10;49.73;;;14.30;79.80;;;;;;5062288;28;20415;-86
2022/05/06 06:43:48;;;;;;;97.47;48.90;;;14.20;80.10;;;;;;5059285;28;20446;-86
2022/05/06 06:46:15;;;;;;;105.75;53.55;;;14.20;80.10;;;;;;5063339;28;20763;-86
2022/05/06 06:48:41;;;;;;;106.15;54.65;;;14.20;80.30;;;;;;5060322;28;20188;-88
2022/05/06 06:51:07;;;;;;;118.10;57.40;;;14.00;80.30;;;;;;5059635;28;20195;-86
2022/05/06 06:53:33;;;;;;;127.43;55.70;;;14.00;80.80;;;;;;5068655;28;20448;-86
2022/05/06 06:55:59;;;;;;;147.30;63.15;;;14.00;80.90;;;;;;5080456;28;20472;-88
2022/05/06 06:58:25;;;;;;;136.70;57.53;;;13.90;81.30;;;;;;5100945;28;20523;-87
2022/05/06 07:00:52;;;;;;;137.83;58.83;;;13.90;81.80;;;;;;5062999;28;20422;-85
2022/05/06 07:03:18;;;;;;;133.68;62.10;;;13.90;81.80;;;;;;5059177;28;20413;-86
2022/05/06 07:14:04;;;;;;;131.98;59.33;;;14.20;80.60;;;;;;5062491;28;20556;-85
2022/05/06 07:16:30;;;;;;;147.23;60.08;;;14.20;80.40;;;;;;5076649;28;20216;-86
2022/05/06 07:18:55;;;;;;;141.60;61.60;;;14.20;80.40;;;;;;5091213;28;20181;-88
2022/05/06 07:21:21;;;;;;;140.47;59.67;;;14.20;80.20;;;;;;5116246;28;20183;-85
2022/05/06 07:23:47;;;;;;;152.40;64.47;;;14.20;80.20;;;;;;5103059;28;20202;-86
2022/05/06 07:26:13;;;;;;;149.63;63.47;;;14.30;80.10;;;;;;5105765;28;20572;-85
2022/05/06 07:28:39;;;;;;;167.40;70.17;;;14.10;80.20;;;;;;5079849;28;20205;-86
2022/05/06 07:31:05;;;;;;;163.18;63.17;;;14.10;80.50;;;;;;5075760;28;20450;-87
2022/05/06 07:33:31;;;;;;;171.03;67.30;;;14.00;80.60;;;;;;5065607;28;20198;-85
2022/05/06 07:35:57;;;;;;;176.17;71.30;;;13.90;81.00;;;;;;5095102;28;20464;-86
2022/05/06 07:38:22;;;;;;;140.77;62.90;;;13.80;81.30;;;;;;5068883;28;20175;-87
2022/05/06 07:40:48;;;;;;;125.83;57.80;;;13.90;81.40;;;;;;5075049;28;20195;-86
2022/05/06 07:43:15;;;;;;;150.93;65.18;;;14.10;81.20;;;;;;5082936;28;20430;-87
2022/05/06 07:45:41;;;;;;;145.82;64.20;;;14.20;80.80;;;;;;5096941;28;20267;-86
2022/05/06 07:48:08;;;;;;;158.32;67.07;;;14.20;80.10;;;;;;5095778;28;20176;-87
2022/05/06 07:50:37;;;;;;;139.25;64.28;;;14.10;80.10;;;;;;5080238;28;20308;-88
2022/05/06 07:53:02;;;;;;;116.45;58.08;;;14.20;80.00;;;;;;5098298;28;20675;-87
2022/05/06 07:55:29;;;;;;;136.97;63.00;;;14.40;79.70;;;;;;5093223;28;20302;-87
2022/05/06 07:57:57;;;;;;;123.07;57.83;;;14.80;77.70;;;;;;5061639;28;20177;-86
2022/05/06 08:00:24;;;;;;;109.90;54.88;;;14.80;77.10;;;;;;5090292;28;20188;-87
2022/05/06 08:05:34;;;;;;;103.22;55.03;;;15.40;74.60;;;;;;5087189;28;20289;-87
2022/05/06 08:08:00;;;;;;;95.13;50.63;;;15.90;72.60;;;;;;5079581;28;20201;-87
2022/05/06 08:10:26;;;;;;;102.57;55.27;;;16.20;71.50;;;;;;5058466;28;20208;-87
2022/05/06 08:12:51;;;;;;;103.53;53.07;;;16.20;71.70;;;;;;5073212;28;20264;-87
2022/05/06 08:15:17;;;;;;;97.30;51.20;;;16.20;71.40;;;;;;5048662;28;20543;-86
2022/05/06 08:17:43;;;;;;;104.37;53.73;;;16.30;71.10;;;;;;5067531;28;20616;-87
2022/05/06 08:20:09;;;;;;;106.57;56.67;;;16.20;70.90;;;;;;5087900;28;20671;-87
2022/05/06 08:22:36;;;;;;;113.40;55.53;;;16.30;71.00;;;;;;5080717;28;20268;-85
2022/05/06 08:25:04;;;;;;;92.65;49.85;;;16.10;71.40;;;;;;5090906;28;20204;-88
2022/05/06 08:27:36;;;;;;;105.60;52.85;;;16.10;71.20;;;;;;5088576;28;20198;-87
2022/05/06 08:30:10;;;;;;;98.57;49.78;;;16.30;70.50;;;;;;5106462;28;20185;-86
2022/05/06 08:32:36;;;;;;;106.82;54.05;;;16.30;70.20;;;;;;5081818;28;20635;-87
2022/05/06 08:35:04;;;;;;;91.50;51.20;;;16.40;69.50;;;;;;5076039;28;20227;-85
2022/05/06 08:37:39;;;;;;;104.40;51.70;;;16.40;68.80;;;;;;5051558;28;20593;-87
2022/05/06 08:40:06;;;;;;;99.50;49.63;;;16.30;68.70;;;;;;5085613;28;20186;-85
2022/05/06 08:42:31;;;;;;;100.47;50.30;;;16.20;68.90;;;;;;5078270;28;20211;-86
2022/05/06 08:53:11;;;;;;;87.03;47.88;;;16.10;69.50;;;;;;5116144;28;20187;-86
2022/05/06 08:55:37;;;;;;;90.65;49.17;;;16.20;68.50;;;;;;5115944;28;20313;-85
2022/05/06 08:58:05;;;;;;;84.73;44.50;;;16.20;68.30;;;;;;5100454;28;20180;-85
2022/05/06 09:00:31;;;;;;;79.65;44.13;;;16.10;68.50;;;;;;5100211;28;20198;-86
2022/05/06 09:02:57;;;;;;;93.27;49.40;;;16.20;68.80;;;;;;5098657;28;20215;-86
2022/05/06 09:05:23;;;;;;;81.70;46.57;;;16.20;68.50;;;;;;5099884;28;20214;-88
2022/05/06 09:08:00;;;;;;;84.57;44.07;;;16.20;68.50;;;;;;5099188;28;20418;-87
2022/05/06 09:10:26;;;;;;;85.82;46.25;;;16.30;68.40;;;;;;5079877;28;20259;-87
2022/05/06 09:12:56;;;;;;;86.07;46.30;;;16.30;68.10;;;;;;5071715;28;20184;-87
2022/05/06 09:18:07;;;;;;;79.88;41.58;;;16.60;68.00;;;;;;5076301;28;20180;-87
2022/05/06 09:20:34;;;;;;;82.43;43.72;;;16.60;68.20;;;;;;5057172;28;20200;-86
2022/05/06 09:23:29;;;;;;;81.53;43.33;;;16.60;68.30;;;;;;5083794;28;20190;-87
2022/05/06 09:25:56;;;;;;;91.75;45.55;;;16.80;67.70;;;;;;5116032;28;20203;-86
2022/05/06 09:28:27;;;;;;;84.53;44.58;;;16.90;67.20;;;;;;5097863;28;20684;-87
2022/05/06 09:31:06;;;;;;;87.47;46.53;;;17.00;66.30;;;;;;5080530;28;20196;-87
2022/05/06 09:33:35;;;;;;;86.40;43.28;;;17.10;65.80;;;;;;5068396;28;20160;-86
2022/05/06 09:36:23;;;;;;;79.80;42.83;;;17.10;65.00;;;;;;5066663;28;20272;-86
2022/05/06 09:39:13;;;;;;;84.55;41.05;;;17.20;64.40;;;;;;5074936;28;20188;-87
2022/05/06 09:41:40;;;;;;;75.03;40.03;;;17.30;64.20;;;;;;5075386;28;20176;-86
2022/05/06 09:44:08;;;;;;;75.60;37.38;;;17.40;64.00;;;;;;5058771;28;20185;-87
2022/05/06 09:46:34;;;;;;;70.05;40.30;;;17.20;64.10;;;;;;5068185;28;20188;-85
2022/05/06 09:49:07;;;;;;;82.15;42.38;;;17.30;63.20;;;;;;5086960;28;20176;-86
2022/05/06 09:51:34;;;;;;;70.60;36.00;;;17.40;62.80;;;;;;5040287;28;20179;-86
2022/05/06 09:54:03;;;;;;;65.72;34.97;;;17.40;63.20;;;;;;5069199;28;20188;-87
2022/05/06 09:56:29;;;;;;;69.68;35.70;;;17.30;64.10;;;;;;5076525;28;20199;-87
2022/05/06 09:58:57;;;;;;;60.70;34.70;;;17.30;64.50;;;;;;5077471;28;20539;-87
2022/05/06 10:01:24;;;;;;;56.10;30.98;;;17.20;64.40;;;;;;5072749;28;20422;-88
2022/05/06 10:03:54;;;;;;;48.15;29.42;;;17.20;64.20;;;;;;5087553;28;20267;-88
2022/05/06 10:06:25;;;;;;;52.60;31.80;;;17.30;63.60;;;;;;5071944;28;20211;-86
2022/05/06 10:08:58;;;;;;;56.25;30.88;;;17.00;63.00;;;;;;5094695;28;20176;-86
2022/05/06 10:11:30;;;;;;;60.05;33.20;;;17.20;63.20;;;;;;5077154;28;20182;-87
2022/05/06 10:14:03;;;;;;;54.42;31.63;;;17.10;62.80;;;;;;5059348;28;20185;-86
2022/05/06 10:16:36;;;;;;;51.70;31.25;;;17.00;62.60;;;;;;5073542;28;20230;-86
2022/05/06 10:19:03;;;;;;;49.72;30.50;;;17.30;61.60;;;;;;5087336;28;20203;-85
2022/05/06 10:21:48;;;;;;;48.40;28.13;;;17.60;60.60;;;;;;5093862;28;20175;-87
2022/05/06 10:24:16;;;;;;;46.70;26.40;;;17.50;61.40;;;;;;5125296;28;20234;-88
2022/05/06 10:26:45;;;;;;;44.90;27.52;;;17.60;61.00;;;;;;5129311;28;20171;-85
2022/05/06 10:32:56;;;;;;;56.97;29.52;;;17.50;61.50;;;;;;5085858;28;20269;-87
2022/05/06 10:35:58;;;;;;;50.95;29.92;;;17.80;60.90;;;;;;5094472;28;20211;-87
2022/05/06 10:38:25;;;;;;;46.13;26.98;;;18.10;58.20;;;;;;5030017;28;20184;-86
2022/05/06 10:40:59;;;;;;;50.65;29.35;;;18.20;57.90;;;;;;5101702;28;20248;-86
2022/05/06 10:43:49;;;;;;;60.90;31.85;;;18.20;57.60;;;;;;5098203;28;20202;-85
2022/05/06 10:46:32;;;;;;;62.30;33.28;;;18.10;59.00;;;;;;5070492;28;20211;-86
2022/05/06 10:49:33;;;;;;;45.08;28.55;;;18.20;60.10;;;;;;5063028;28;20248;-85
2022/05/06 10:52:14;;;;;;;50.88;29.70;;;18.30;60.60;;;;;;5096169;28;20161;-85
2022/05/06 10:55:03;;;;;;;46.03;26.15;;;18.30;60.50;;;;;;5078823;28;20246;-86
2022/05/06 10:58:02;;;;;;;53.58;29.25;;;18.40;60.40;;;;;;5085117;28;20176;-86
2022/05/06 11:00:30;;;;;;;58.03;33.05;;;18.60;59.10;;;;;;5078895;28;20184;-87
2022/05/06 11:02:58;;;;;;;30.38;19.83;;;18.60;58.80;;;;;;5080300;28;20171;-87
2022/05/06 11:05:25;;;;;;;28.60;16.25;;;18.10;57.00;;;;;;5080816;28;20218;-87
2022/05/06 11:07:55;;;;;;;23.00;14.73;;;18.10;56.40;;;;;;5080674;28;20190;-87
2022/05/06 11:10:27;;;;;;;20.13;13.48;;;17.90;56.50;;;;;;5080493;28;20176;-86
2022/05/06 11:12:57;;;;;;;29.00;15.50;;;18.20;56.50;;;;;;5080839;28;20651;-86
2022/05/06 11:15:29;;;;;;;28.60;17.25;;;18.20;56.00;;;;;;5080819;28;20242;-86
2022/05/06 11:17:58;;;;;;;24.15;15.38;;;18.20;56.90;;;;;;5080504;28;20178;-87
2022/05/06 11:20:28;;;;;;;22.17;16.15;;;18.00;56.60;;;;;;5080148;28;20746;-88
2022/05/06 11:23:05;;;;;;;22.88;16.33;;;18.20;55.80;;;;;;5057678;28;20542;-86
2022/05/06 11:25:45;;;;;;;23.73;15.77;;;18.50;55.40;;;;;;5090230;28;20204;-85
2022/05/06 11:28:17;;;;;;;23.33;16.10;;;18.50;55.80;;;;;;5082253;28;20187;-87
2022/05/06 11:30:45;;;;;;;24.95;17.52;;;18.50;55.70;;;;;;5062417;28;20211;-86
2022/05/06 11:33:31;;;;;;;25.98;16.48;;;18.40;55.80;;;;;;5096820;28;20642;-86
2022/05/06 11:36:02;;;;;;;21.00;15.50;;;18.30;55.70;;;;;;5048362;28;20245;-88
2022/05/06 11:38:33;;;;;;;25.10;16.40;;;18.20;55.40;;;;;;5090987;28;20184;-86
2022/05/06 11:41:19;;;;;;;21.88;15.50;;;18.50;54.50;;;;;;5070395;28;20181;-87
2022/05/06 11:43:46;;;;;;;18.95;14.30;;;18.70;54.00;;;;;;5058458;28;20188;-87
2022/05/06 11:49:04;;;;;;;21.05;14.02;;;18.70;53.20;;;;;;5076253;28;20310;-87
2022/05/06 11:51:38;;;;;;;17.58;12.23;;;18.60;52.80;;;;;;5075692;28;20184;-86
2022/05/06 11:54:05;;;;;;;23.15;12.00;;;18.50;52.60;;;;;;5057501;28;20541;-87
2022/05/06 11:56:33;;;;;;;21.75;12.52;;;18.70;52.40;;;;;;5057579;28;20212;-87
2022/05/06 11:59:00;;;;;;;19.30;11.43;;;19.00;50.70;;;;;;5061883;28;20180;-87
2022/05/06 12:01:31;;;;;;;19.25;11.40;;;19.20;50.00;;;;;;5069273;28;20686;-88
2022/05/06 12:04:09;;;;;;;18.02;12.07;;;19.10;51.20;;;;;;5096019;28;20255;-85
2022/05/06 12:06:38;;;;;;;18.02;12.68;;;18.90;52.00;;;;;;5088932;28;20538;-86
2022/05/06 12:09:18;;;;;;;18.63;12.00;;;18.70;52.80;;;;;;5042091;28;20192;-87
2022/05/06 12:11:45;;;;;;;14.15;10.73;;;18.80;53.10;;;;;;5075421;28;20187;-86
2022/05/06 12:14:15;;;;;;;15.15;10.80;;;18.80;52.90;;;;;;5084418;28;20177;-87
2022/05/06 12:16:58;;;;;;;14.00;9.30;;;18.80;52.80;;;;;;5063375;28;20205;-87
2022/05/06 12:19:37;;;;;;;14.35;11.90;;;18.90;53.00;;;;;;5039947;28;20172;-86
2022/05/06 12:22:14;;;;;;;16.65;12.70;;;18.80;52.60;;;;;;5069904;28;20177;-86
2022/05/06 12:24:48;;;;;;;17.05;11.60;;;18.60;53.10;;;;;;5098033;28;20788;-87
2022/05/06 12:27:34;;;;;;;16.67;12.52;;;18.70;53.30;;;;;;5086533;28;20184;-87
2022/05/06 12:30:01;;;;;;;13.20;10.05;;;18.70;53.20;;;;;;5074767;28;20725;-86
2022/05/06 12:32:30;;;;;;;16.38;11.30;;;18.70;53.20;;;;;;5093386;28;20247;-88
2022/05/06 12:35:09;;;;;;;15.43;10.48;;;19.00;53.10;;;;;;5078224;28;20747;-86
2022/05/06 12:37:55;;;;;;;17.30;11.20;;;19.10;53.20;;;;;;5058380;28;20211;-86
2022/05/06 12:40:20;;;;;;;14.57;10.23;;;19.20;51.60;;;;;;5075964;28;20245;-87
2022/05/06 12:43:10;;;;;;;11.50;9.83;;;19.50;51.40;;;;;;5085667;28;20172;-86
2022/05/06 12:45:36;;;;;;;13.68;9.93;;;19.90;50.70;;;;;;5081352;28;20291;-86
2022/05/06 12:50:47;;;;;;;12.37;9.93;;;20.10;50.50;;;;;;5075955;28;20472;-87
2022/05/06 12:53:13;;;;;;;12.03;9.60;;;20.50;50.00;;;;;;5056963;28;20440;-87
2022/05/06 12:55:40;;;;;;;13.10;10.80;;;20.70;48.90;;;;;;5060797;28;20480;-86
2022/05/06 12:58:06;;;;;;;11.07;9.60;;;20.70;48.80;;;;;;5084976;28;20406;-87
2022/05/06 13:00:32;;;;;;;11.63;9.00;;;20.90;48.60;;;;;;5066117;28;20426;-88
2022/05/06 13:03:00;;;;;;;19.40;11.70;;;21.10;48.80;;;;;;5086771;28;20410;-86
2022/05/06 13:05:27;;;;;;;21.10;14.03;;;21.00;48.00;;;;;;5073854;28;20438;-87
2022/05/06 13:07:53;;;;;;;19.70;12.50;;;20.70;48.10;;;;;;5103879;28;20446;-88
2022/05/06 13:10:19;;;;;;;15.73;11.10;;;20.50;48.20;;;;;;5076178;28;20472;-88
2022/05/06 13:12:45;;;;;;;16.50;11.77;;;20.30;48.10;;;;;;5095113;28;20176;-87
2022/05/06 13:15:11;;;;;;;17.17;11.00;;;20.30;48.10;;;;;;5087856;28;20580;-86
2022/05/06 13:17:37;;;;;;;17.77;11.10;;;20.40;47.20;;;;;;5114042;28;20421;-86